sensor_id;sensor_type;location;lat;lon;timestamp;pressure;altitude;pressure_sealevel;temperature;humidity
15817;BME280;8009;50.070;8.232;2023-08-08T00:01:43;100002.88;;;16.67;61.89
15817;BME280;8009;50.070;8.232;2023-08-08T00:04:12;99993.25;;;17.08;60.49
15817;BME280;8009;50.070;8.232;2023-08-08T00:06:40;100001.00;;;16.31;63.35
15817;BME280;8009;50.070;8.232;2023-08-08T00:09:08;100007.56;;;16.56;62.28
15817;BME280;8009;50.070;8.232;2023-08-08T00:11:37;100007.63;;;16.47;62.37
15817;BME280;8009;50.070;8.232;2023-08-08T00:14:08;99997.59;;;16.47;62.33
15817;BME280;8009;50.070;8.232;2023-08-08T00:16:36;99994.94;;;16.38;63.37
15817;BME280;8009;50.070;8.232;2023-08-08T00:19:04;99989.00;;;16.88;61.84
15817;BME280;8009;50.070;8.232;2023-08-08T00:21:33;100000.56;;;16.72;62.55
15817;BME280;8009;50.070;8.232;2023-08-08T00:24:02;100011.38;;;16.46;62.77
15817;BME280;8009;50.070;8.232;2023-08-08T00:26:31;99995.53;;;16.31;62.94
15817;BME280;8009;50.070;8.232;2023-08-08T00:28:59;99993.84;;;16.30;63.86
15817;BME280;8009;50.070;8.232;2023-08-08T00:31:30;100001.16;;;16.48;62.86
15817;BME280;8009;50.070;8.232;2023-08-08T00:33:58;99992.72;;;16.23;63.26
15817;BME280;8009;50.070;8.232;2023-08-08T00:36:27;99994.19;;;16.18;64.98
15817;BME280;8009;50.070;8.232;2023-08-08T00:38:55;99995.28;;;16.52;62.44
15817;BME280;8009;50.070;8.232;2023-08-08T00:41:25;100000.47;;;16.46;62.83
15817;BME280;8009;50.070;8.232;2023-08-08T00:43:53;99998.78;;;16.17;63.66
15817;BME280;8009;50.070;8.232;2023-08-08T00:46:22;99979.75;;;16.71;62.11
15817;BME280;8009;50.070;8.232;2023-08-08T00:48:54;99981.19;;;16.57;62.64
15817;BME280;8009;50.070;8.232;2023-08-08T00:51:24;99983.19;;;16.55;62.81
15817;BME280;8009;50.070;8.232;2023-08-08T00:53:52;99969.63;;;16.63;62.82
15817;BME280;8009;50.070;8.232;2023-08-08T00:56:22;99982.31;;;16.54;62.66
15817;BME280;8009;50.070;8.232;2023-08-08T00:58:51;99975.34;;;16.06;64.42
15817;BME280;8009;50.070;8.232;2023-08-08T01:01:19;99971.19;;;16.66;62.67
15817;BME280;8009;50.070;8.232;2023-08-08T01:03:48;99964.09;;;16.55;63.38
15817;BME280;8009;50.070;8.232;2023-08-08T01:06:26;99965.59;;;16.04;64.34
15817;BME280;8009;50.070;8.232;2023-08-08T01:08:59;99966.66;;;16.39;63.02
15817;BME280;8009;50.070;8.232;2023-08-08T01:11:30;99973.69;;;15.96;64.56
15817;BME280;8009;50.070;8.232;2023-08-08T01:14:00;99974.53;;;16.42;63.30
15817;BME280;8009;50.070;8.232;2023-08-08T01:16:31;99967.44;;;16.67;63.31
15817;BME280;8009;50.070;8.232;2023-08-08T01:19:00;99970.19;;;16.03;64.70
15817;BME280;8009;50.070;8.232;2023-08-08T01:21:32;99979.47;;;16.11;64.03
15817;BME280;8009;50.070;8.232;2023-08-08T01:24:18;99982.25;;;16.01;64.55
15817;BME280;8009;50.070;8.232;2023-08-08T01:26:47;99977.19;;;15.78;65.15
15817;BME280;8009;50.070;8.232;2023-08-08T01:29:15;99971.00;;;15.86;65.14
15817;BME280;8009;50.070;8.232;2023-08-08T01:31:43;99970.22;;;16.21;63.77
15817;BME280;8009;50.070;8.232;2023-08-08T01:34:12;99966.28;;;16.06;64.44
15817;BME280;8009;50.070;8.232;2023-08-08T01:36:46;99960.84;;;16.06;64.83
15817;BME280;8009;50.070;8.232;2023-08-08T01:39:22;99968.13;;;16.33;64.07
15817;BME280;8009;50.070;8.232;2023-08-08T01:41:52;99961.16;;;16.48;63.55
15817;BME280;8009;50.070;8.232;2023-08-08T01:44:22;99968.13;;;16.15;64.27
15817;BME280;8009;50.070;8.232;2023-08-08T01:46:51;99968.31;;;16.04;64.33
15817;BME280;8009;50.070;8.232;2023-08-08T01:49:20;99968.13;;;16.15;64.20
15817;BME280;8009;50.070;8.232;2023-08-08T01:51:48;99969.69;;;16.36;63.99
15817;BME280;8009;50.070;8.232;2023-08-08T01:54:20;99970.16;;;16.31;63.51
15817;BME280;8009;50.070;8.232;2023-08-08T01:56:48;99962.69;;;15.88;64.92
15817;BME280;8009;50.070;8.232;2023-08-08T01:59:16;99960.91;;;15.69;65.47
15817;BME280;8009;50.070;8.232;2023-08-08T02:01:47;99961.75;;;15.59;65.81
15817;BME280;8009;50.070;8.232;2023-08-08T02:04:15;99956.75;;;15.65;65.78
15817;BME280;8009;50.070;8.232;2023-08-08T02:06:44;99948.94;;;15.79;65.26
15817;BME280;8009;50.070;8.232;2023-08-08T02:09:12;99952.59;;;15.70;65.76
15817;BME280;8009;50.070;8.232;2023-08-08T02:11:43;99948.06;;;15.89;65.09
15817;BME280;8009;50.070;8.232;2023-08-08T02:14:12;99946.22;;;15.79;66.05
15817;BME280;8009;50.070;8.232;2023-08-08T02:16:40;99948.59;;;15.55;66.52
15817;BME280;8009;50.070;8.232;2023-08-08T02:19:08;99956.78;;;15.55;66.36
15817;BME280;8009;50.070;8.232;2023-08-08T02:21:37;99952.97;;;15.75;66.58
15817;BME280;8009;50.070;8.232;2023-08-08T02:24:05;99941.03;;;15.49;67.09
15817;BME280;8009;50.070;8.232;2023-08-08T02:26:33;99953.72;;;15.30;67.41
15817;BME280;8009;50.070;8.232;2023-08-08T02:29:04;99946.78;;;15.46;66.96
15817;BME280;8009;50.070;8.232;2023-08-08T02:31:33;99960.34;;;14.99;68.43
15817;BME280;8009;50.070;8.232;2023-08-08T02:34:01;99948.34;;;15.01;68.31
15817;BME280;8009;50.070;8.232;2023-08-08T02:36:29;99947.09;;;15.43;67.62
15817;BME280;8009;50.070;8.232;2023-08-08T02:38:58;99948.19;;;15.03;68.58
15817;BME280;8009;50.070;8.232;2023-08-08T02:41:27;99942.50;;;15.33;67.64
15817;BME280;8009;50.070;8.232;2023-08-08T02:43:55;99946.00;;;15.16;67.73
15817;BME280;8009;50.070;8.232;2023-08-08T02:46:26;99955.22;;;14.76;69.35
15817;BME280;8009;50.070;8.232;2023-08-08T02:48:54;99953.94;;;14.61;69.96
15817;BME280;8009;50.070;8.232;2023-08-08T02:51:23;99950.06;;;14.93;69.32
15817;BME280;8009;50.070;8.232;2023-08-08T02:53:51;99953.19;;;14.88;69.34
15817;BME280;8009;50.070;8.232;2023-08-08T02:56:19;99960.81;;;14.84;69.13
15817;BME280;8009;50.070;8.232;2023-08-08T02:58:47;99956.19;;;14.95;69.22
15817;BME280;8009;50.070;8.232;2023-08-08T03:01:17;99952.63;;;14.94;69.12
15817;BME280;8009;50.070;8.232;2023-08-08T03:03:49;99946.50;;;14.92;69.26
15817;BME280;8009;50.070;8.232;2023-08-08T03:06:18;99947.44;;;15.10;68.59
15817;BME280;8009;50.070;8.232;2023-08-08T03:08:46;99945.78;;;14.90;69.43
15817;BME280;8009;50.070;8.232;2023-08-08T03:11:14;99941.94;;;14.54;70.12
15817;BME280;8009;50.070;8.232;2023-08-08T03:13:43;99945.94;;;14.69;70.15
15817;BME280;8009;50.070;8.232;2023-08-08T03:16:11;99946.81;;;14.70;70.17
15817;BME280;8009;50.070;8.232;2023-08-08T03:18:40;99950.47;;;14.88;69.61
15817;BME280;8009;50.070;8.232;2023-08-08T03:21:11;99947.94;;;14.77;69.76
15817;BME280;8009;50.070;8.232;2023-08-08T03:23:39;99945.06;;;14.78;69.93
15817;BME280;8009;50.070;8.232;2023-08-08T03:26:07;99943.78;;;14.82;69.58
15817;BME280;8009;50.070;8.232;2023-08-08T03:29:01;99943.91;;;14.91;68.95
15817;BME280;8009;50.070;8.232;2023-08-08T03:31:29;99944.91;;;14.80;69.77
15817;BME280;8009;50.070;8.232;2023-08-08T03:33:57;99947.63;;;14.80;69.31
15817;BME280;8009;50.070;8.232;2023-08-08T03:36:28;99948.94;;;14.85;69.81
15817;BME280;8009;50.070;8.232;2023-08-08T03:38:56;99945.47;;;14.83;69.15
15817;BME280;8009;50.070;8.232;2023-08-08T03:41:25;99950.50;;;14.49;70.23
15817;BME280;8009;50.070;8.232;2023-08-08T03:43:53;99946.66;;;14.71;69.86
15817;BME280;8009;50.070;8.232;2023-08-08T03:52:33;99947.59;;;14.99;69.26
15817;BME280;8009;50.070;8.232;2023-08-08T03:55:03;99946.22;;;14.85;69.30
15817;BME280;8009;50.070;8.232;2023-08-08T03:57:32;99943.50;;;14.76;69.97
15817;BME280;8009;50.070;8.232;2023-08-08T04:00:00;99944.88;;;15.09;68.74
15817;BME280;8009;50.070;8.232;2023-08-08T04:02:29;99939.44;;;15.19;68.37
15817;BME280;8009;50.070;8.232;2023-08-08T04:04:57;99940.75;;;14.95;69.19
15817;BME280;8009;50.070;8.232;2023-08-08T04:07:27;99937.56;;;15.19;68.18
15817;BME280;8009;50.070;8.232;2023-08-08T04:09:59;99935.34;;;14.56;70.21
15817;BME280;8009;50.070;8.232;2023-08-08T04:12:27;99944.19;;;14.87;69.03
15817;BME280;8009;50.070;8.232;2023-08-08T04:14:58;99936.09;;;15.25;68.34
15817;BME280;8009;50.070;8.232;2023-08-08T04:17:44;99927.19;;;14.85;68.69
15817;BME280;8009;50.070;8.232;2023-08-08T04:20:13;99937.88;;;15.06;68.29
15817;BME280;8009;50.070;8.232;2023-08-08T04:22:41;99937.47;;;14.72;69.72
15817;BME280;8009;50.070;8.232;2023-08-08T04:34:51;99958.03;;;15.23;67.88
15817;BME280;8009;50.070;8.232;2023-08-08T04:40:30;99955.75;;;14.22;71.17
15817;BME280;8009;50.070;8.232;2023-08-08T04:43:00;99946.63;;;15.00;68.79
15817;BME280;8009;50.070;8.232;2023-08-08T04:45:28;99939.28;;;15.20;67.93
15817;BME280;8009;50.070;8.232;2023-08-08T04:54:07;99943.06;;;15.00;68.65
15817;BME280;8009;50.070;8.232;2023-08-08T04:56:43;99947.03;;;15.15;68.26
15817;BME280;8009;50.070;8.232;2023-08-08T04:59:11;99942.41;;;15.25;67.80
15817;BME280;8009;50.070;8.232;2023-08-08T05:01:39;99940.16;;;15.11;68.50
15817;BME280;8009;50.070;8.232;2023-08-08T05:04:08;99932.75;;;15.03;68.81
15817;BME280;8009;50.070;8.232;2023-08-08T05:06:37;99936.34;;;14.65;70.24
15817;BME280;8009;50.070;8.232;2023-08-08T05:09:07;99944.31;;;14.37;70.90
15817;BME280;8009;50.070;8.232;2023-08-08T05:11:36;99942.88;;;14.33;71.32
15817;BME280;8009;50.070;8.232;2023-08-08T05:14:04;99945.81;;;13.82;72.80
15817;BME280;8009;50.070;8.232;2023-08-08T05:16:34;99946.88;;;14.20;71.59
15817;BME280;8009;50.070;8.232;2023-08-08T05:19:03;99943.19;;;14.40;71.19
15817;BME280;8009;50.070;8.232;2023-08-08T05:21:31;99938.34;;;14.63;69.96
15817;BME280;8009;50.070;8.232;2023-08-08T05:24:00;99937.91;;;14.87;68.69
15817;BME280;8009;50.070;8.232;2023-08-08T05:26:31;99943.22;;;14.79;69.54
15817;BME280;8009;50.070;8.232;2023-08-08T05:29:12;99944.34;;;14.76;69.77
15817;BME280;8009;50.070;8.232;2023-08-08T05:31:40;99940.78;;;14.47;70.43
15817;BME280;8009;50.070;8.232;2023-08-08T05:34:08;99942.16;;;14.99;69.03
15817;BME280;8009;50.070;8.232;2023-08-08T05:36:37;99935.72;;;15.10;68.54
15817;BME280;8009;50.070;8.232;2023-08-08T05:39:05;99938.75;;;14.97;69.05
15817;BME280;8009;50.070;8.232;2023-08-08T05:41:37;99935.19;;;14.68;71.44
15817;BME280;8009;50.070;8.232;2023-08-08T05:44:05;99943.47;;;14.47;70.65
15817;BME280;8009;50.070;8.232;2023-08-08T05:46:34;99945.47;;;14.45;70.55
15817;BME280;8009;50.070;8.232;2023-08-08T05:49:02;99942.75;;;14.83;70.00
15817;BME280;8009;50.070;8.232;2023-08-08T05:51:32;99942.16;;;15.09;68.53
15817;BME280;8009;50.070;8.232;2023-08-08T05:54:00;99946.66;;;14.71;70.38
15817;BME280;8009;50.070;8.232;2023-08-08T05:56:37;99940.91;;;14.84;70.47
15817;BME280;8009;50.070;8.232;2023-08-08T05:59:05;99936.16;;;15.15;68.79
15817;BME280;8009;50.070;8.232;2023-08-08T06:01:34;99938.19;;;15.03;70.34
15817;BME280;8009;50.070;8.232;2023-08-08T06:04:02;99940.63;;;15.44;67.85
15817;BME280;8009;50.070;8.232;2023-08-08T06:06:31;99941.03;;;15.02;69.09
15817;BME280;8009;50.070;8.232;2023-08-08T06:09:12;99944.50;;;15.41;68.47
15817;BME280;8009;50.070;8.232;2023-08-08T06:11:43;99935.72;;;15.57;67.57
15817;BME280;8009;50.070;8.232;2023-08-08T06:14:12;99937.72;;;15.55;67.92
15817;BME280;8009;50.070;8.232;2023-08-08T06:16:40;99946.78;;;15.46;68.28
15817;BME280;8009;50.070;8.232;2023-08-08T06:19:18;99939.84;;;15.61;67.67
15817;BME280;8009;50.070;8.232;2023-08-08T06:21:46;99933.38;;;15.72;67.57
15817;BME280;8009;50.070;8.232;2023-08-08T06:24:17;99934.09;;;15.64;67.39
15817;BME280;8009;50.070;8.232;2023-08-08T06:26:48;99924.69;;;15.68;67.21
15817;BME280;8009;50.070;8.232;2023-08-08T06:29:16;99933.72;;;16.14;66.42
15817;BME280;8009;50.070;8.232;2023-08-08T06:31:45;99924.69;;;15.68;68.15
15817;BME280;8009;50.070;8.232;2023-08-08T06:34:13;99929.19;;;16.05;67.20
15817;BME280;8009;50.070;8.232;2023-08-08T06:36:41;99923.44;;;16.44;65.64
15817;BME280;8009;50.070;8.232;2023-08-08T06:39:12;99919.63;;;16.54;66.69
15817;BME280;8009;50.070;8.232;2023-08-08T06:41:40;99918.22;;;16.32;65.99
15817;BME280;8009;50.070;8.232;2023-08-08T06:44:21;99932.19;;;16.02;67.15
15817;BME280;8009;50.070;8.232;2023-08-08T06:46:50;99917.94;;;16.36;65.97
15817;BME280;8009;50.070;8.232;2023-08-08T06:52:30;99922.75;;;16.95;64.14
15817;BME280;8009;50.070;8.232;2023-08-08T07:01:04;99917.72;;;17.09;62.82
15817;BME280;8009;50.070;8.232;2023-08-08T07:03:32;99909.22;;;17.12;63.08
15817;BME280;8009;50.070;8.232;2023-08-08T07:06:01;99916.78;;;16.56;63.41
15817;BME280;8009;50.070;8.232;2023-08-08T07:08:30;99922.06;;;17.19;62.39
15817;BME280;8009;50.070;8.232;2023-08-08T07:10:58;99916.81;;;17.26;61.97
15817;BME280;8009;50.070;8.232;2023-08-08T07:13:27;99922.63;;;17.05;63.53
15817;BME280;8009;50.070;8.232;2023-08-08T07:15:56;99925.91;;;17.09;63.16
15817;BME280;8009;50.070;8.232;2023-08-08T07:18:27;99923.94;;;17.45;63.59
15817;BME280;8009;50.070;8.232;2023-08-08T07:20:56;99917.31;;;17.21;61.22
15817;BME280;8009;50.070;8.232;2023-08-08T07:23:24;99921.84;;;17.13;61.37
15817;BME280;8009;50.070;8.232;2023-08-08T07:25:53;99915.66;;;17.28;60.60
15817;BME280;8009;50.070;8.232;2023-08-08T07:28:21;99910.91;;;17.13;61.45
15817;BME280;8009;50.070;8.232;2023-08-08T07:30:50;99909.78;;;17.75;61.61
15817;BME280;8009;50.070;8.232;2023-08-08T07:33:18;99907.78;;;17.60;60.32
15817;BME280;8009;50.070;8.232;2023-08-08T07:35:49;99901.28;;;17.52;59.35
15817;BME280;8009;50.070;8.232;2023-08-08T07:38:18;99905.72;;;17.53;61.90
15817;BME280;8009;50.070;8.232;2023-08-08T07:40:46;99902.28;;;16.73;60.53
15817;BME280;8009;50.070;8.232;2023-08-08T07:43:15;99900.72;;;17.15;59.87
15817;BME280;8009;50.070;8.232;2023-08-08T07:45:44;99896.75;;;16.83;59.65
15817;BME280;8009;50.070;8.232;2023-08-08T07:48:12;99896.16;;;17.23;60.73
15817;BME280;8009;50.070;8.232;2023-08-08T07:50:41;99900.75;;;17.23;58.52
15817;BME280;8009;50.070;8.232;2023-08-08T07:53:13;99893.47;;;17.05;59.28
15817;BME280;8009;50.070;8.232;2023-08-08T07:55:41;99888.94;;;17.14;58.91
15817;BME280;8009;50.070;8.232;2023-08-08T07:58:12;99888.69;;;16.99;59.74
15817;BME280;8009;50.070;8.232;2023-08-08T08:00:41;99887.88;;;17.07;59.03
15817;BME280;8009;50.070;8.232;2023-08-08T08:03:09;99883.84;;;17.80;57.43
15817;BME280;8009;50.070;8.232;2023-08-08T08:05:38;99885.72;;;17.45;57.87
15817;BME280;8009;50.070;8.232;2023-08-08T08:08:06;99896.56;;;18.05;56.67
15817;BME280;8009;50.070;8.232;2023-08-08T08:10:37;99882.22;;;18.19;56.41
15817;BME280;8009;50.070;8.232;2023-08-08T08:13:05;99892.41;;;17.93;57.13
15817;BME280;8009;50.070;8.232;2023-08-08T08:15:34;99885.13;;;18.18;55.43
15817;BME280;8009;50.070;8.232;2023-08-08T08:18:02;99889.75;;;17.67;55.29
15817;BME280;8009;50.070;8.232;2023-08-08T08:20:31;99889.25;;;18.30;55.01
15817;BME280;8009;50.070;8.232;2023-08-08T08:22:59;99886.69;;;18.37;56.55
15817;BME280;8009;50.070;8.232;2023-08-08T08:25:28;99884.63;;;18.39;54.01
15817;BME280;8009;50.070;8.232;2023-08-08T08:27:59;99886.56;;;18.55;55.14
15817;BME280;8009;50.070;8.232;2023-08-08T08:30:28;99881.25;;;18.53;54.30
15817;BME280;8009;50.070;8.232;2023-08-08T08:32:57;99891.94;;;18.06;54.86
15817;BME280;8009;50.070;8.232;2023-08-08T08:35:25;99881.63;;;18.74;53.50
15817;BME280;8009;50.070;8.232;2023-08-08T08:37:54;99883.81;;;18.95;54.44
15817;BME280;8009;50.070;8.232;2023-08-08T08:40:22;99877.34;;;18.72;53.90
15817;BME280;8009;50.070;8.232;2023-08-08T08:42:51;99871.34;;;18.77;54.02
15817;BME280;8009;50.070;8.232;2023-08-08T08:45:23;99878.19;;;18.97;53.01
15817;BME280;8009;50.070;8.232;2023-08-08T08:47:54;99874.59;;;18.88;54.15
15817;BME280;8009;50.070;8.232;2023-08-08T08:50:27;99886.41;;;18.89;53.01
15817;BME280;8009;50.070;8.232;2023-08-08T08:52:55;99875.44;;;19.05;53.28
15817;BME280;8009;50.070;8.232;2023-08-08T08:55:24;99888.75;;;19.16;53.03
15817;BME280;8009;50.070;8.232;2023-08-08T08:57:54;99876.31;;;18.73;53.90
15817;BME280;8009;50.070;8.232;2023-08-08T09:00:26;99882.81;;;18.96;56.39
15817;BME280;8009;50.070;8.232;2023-08-08T09:02:54;99877.16;;;18.90;54.63
15817;BME280;8009;50.070;8.232;2023-08-08T09:05:27;99884.69;;;19.04;54.33
15817;BME280;8009;50.070;8.232;2023-08-08T09:07:55;99874.72;;;19.19;56.15
15817;BME280;8009;50.070;8.232;2023-08-08T09:10:24;99879.84;;;19.22;53.92
15817;BME280;8009;50.070;8.232;2023-08-08T09:12:52;99878.47;;;19.18;53.60
15817;BME280;8009;50.070;8.232;2023-08-08T09:15:21;99884.94;;;19.34;53.43
15817;BME280;8009;50.070;8.232;2023-08-08T09:17:52;99877.06;;;19.39;53.90
15817;BME280;8009;50.070;8.232;2023-08-08T09:20:20;99883.78;;;19.28;56.12
15817;BME280;8009;50.070;8.232;2023-08-08T09:22:48;99869.31;;;19.51;53.43
15817;BME280;8009;50.070;8.232;2023-08-08T09:25:19;99868.25;;;19.68;54.20
15817;BME280;8009;50.070;8.232;2023-08-08T09:27:49;99865.06;;;19.87;57.54
15817;BME280;8009;50.070;8.232;2023-08-08T09:30:18;99862.75;;;20.07;54.34
15817;BME280;8009;50.070;8.232;2023-08-08T09:32:47;99874.91;;;20.05;53.13
15817;BME280;8009;50.070;8.232;2023-08-08T09:35:23;99871.31;;;20.04;53.37
15817;BME280;8009;50.070;8.232;2023-08-08T09:37:53;99866.03;;;20.49;54.19
15817;BME280;8009;50.070;8.232;2023-08-08T09:40:22;99862.63;;;20.24;53.88
15817;BME280;8009;50.070;8.232;2023-08-08T09:42:59;99863.81;;;20.52;52.40
15817;BME280;8009;50.070;8.232;2023-08-08T09:45:35;99858.50;;;20.28;55.62
15817;BME280;8009;50.070;8.232;2023-08-08T09:48:05;99858.81;;;20.56;52.35
15817;BME280;8009;50.070;8.232;2023-08-08T09:50:36;99853.44;;;20.39;53.29
15817;BME280;8009;50.070;8.232;2023-08-08T09:53:05;99846.16;;;20.55;55.20
15817;BME280;8009;50.070;8.232;2023-08-08T09:55:34;99846.22;;;20.84;51.02
15817;BME280;8009;50.070;8.232;2023-08-08T09:58:04;99845.19;;;20.85;52.58
15817;BME280;8009;50.070;8.232;2023-08-08T10:00:33;99843.31;;;21.01;52.38
15817;BME280;8009;50.070;8.232;2023-08-08T10:03:02;99841.03;;;20.89;49.99
15817;BME280;8009;50.070;8.232;2023-08-08T10:05:31;99850.78;;;20.92;55.50
15817;BME280;8009;50.070;8.232;2023-08-08T10:08:02;99853.53;;;20.92;49.76
15817;BME280;8009;50.070;8.232;2023-08-08T10:10:31;99833.50;;;21.06;49.24
15817;BME280;8009;50.070;8.232;2023-08-08T10:13:01;99841.38;;;20.86;52.22
15817;BME280;8009;50.070;8.232;2023-08-08T10:15:29;99845.66;;;20.89;52.14
15817;BME280;8009;50.070;8.232;2023-08-08T10:17:58;99843.69;;;21.12;48.41
15817;BME280;8009;50.070;8.232;2023-08-08T10:20:31;99846.81;;;21.09;47.72
15817;BME280;8009;50.070;8.232;2023-08-08T10:23:02;99843.69;;;20.98;51.53
15817;BME280;8009;50.070;8.232;2023-08-08T10:25:32;99850.59;;;20.93;47.47
15817;BME280;8009;50.070;8.232;2023-08-08T10:28:03;99838.72;;;20.78;47.04
15817;BME280;8009;50.070;8.232;2023-08-08T10:30:42;99846.25;;;20.99;47.75
15817;BME280;8009;50.070;8.232;2023-08-08T10:33:17;99845.44;;;20.76;47.99
15817;BME280;8009;50.070;8.232;2023-08-08T10:36:00;99850.34;;;20.65;50.39
15817;BME280;8009;50.070;8.232;2023-08-08T10:38:42;99843.09;;;20.73;45.60
15817;BME280;8009;50.070;8.232;2023-08-08T10:41:13;99840.88;;;20.68;52.23
15817;BME280;8009;50.070;8.232;2023-08-08T10:43:50;99842.53;;;20.77;48.26
15817;BME280;8009;50.070;8.232;2023-08-08T10:46:26;99844.94;;;20.57;52.01
15817;BME280;8009;50.070;8.232;2023-08-08T10:48:56;99857.25;;;20.61;47.82
15817;BME280;8009;50.070;8.232;2023-08-08T10:51:33;99852.16;;;20.73;52.64
15817;BME280;8009;50.070;8.232;2023-08-08T10:54:06;99857.13;;;20.55;49.52
15817;BME280;8009;50.070;8.232;2023-08-08T10:56:35;99849.97;;;20.68;48.43
15817;BME280;8009;50.070;8.232;2023-08-08T10:59:13;99846.84;;;20.72;46.69
15817;BME280;8009;50.070;8.232;2023-08-08T11:01:44;99854.50;;;20.61;47.45
15817;BME280;8009;50.070;8.232;2023-08-08T11:04:15;99854.06;;;20.73;48.65
15817;BME280;8009;50.070;8.232;2023-08-08T11:06:44;99856.72;;;20.81;46.97
15817;BME280;8009;50.070;8.232;2023-08-08T11:09:15;99856.63;;;20.51;50.67
15817;BME280;8009;50.070;8.232;2023-08-08T11:11:44;99856.69;;;20.66;51.39
15817;BME280;8009;50.070;8.232;2023-08-08T11:14:14;99865.53;;;20.53;48.90
15817;BME280;8009;50.070;8.232;2023-08-08T11:16:44;99840.16;;;20.51;48.59
15817;BME280;8009;50.070;8.232;2023-08-08T11:19:12;99853.66;;;20.61;52.49
15817;BME280;8009;50.070;8.232;2023-08-08T11:21:42;99853.91;;;20.43;49.77
15817;BME280;8009;50.070;8.232;2023-08-08T11:24:11;99850.91;;;20.61;47.51
15817;BME280;8009;50.070;8.232;2023-08-08T11:26:44;99852.00;;;20.52;53.31
15817;BME280;8009;50.070;8.232;2023-08-08T11:29:13;99838.59;;;20.57;47.52
15817;BME280;8009;50.070;8.232;2023-08-08T11:31:41;99850.22;;;20.59;55.32
15817;BME280;8009;50.070;8.232;2023-08-08T11:34:10;99846.75;;;20.65;50.15
15817;BME280;8009;50.070;8.232;2023-08-08T11:36:38;99840.84;;;20.53;47.53
15817;BME280;8009;50.070;8.232;2023-08-08T11:39:07;99834.78;;;20.81;48.09
15817;BME280;8009;50.070;8.232;2023-08-08T11:41:48;99843.41;;;20.55;50.35
15817;BME280;8009;50.070;8.232;2023-08-08T11:44:19;99851.63;;;20.55;49.12
15817;BME280;8009;50.070;8.232;2023-08-08T11:46:50;99847.84;;;20.56;45.57
15817;BME280;8009;50.070;8.232;2023-08-08T11:49:18;99850.94;;;20.53;47.20
15817;BME280;8009;50.070;8.232;2023-08-08T11:51:55;99848.78;;;20.86;48.16
15817;BME280;8009;50.070;8.232;2023-08-08T11:54:30;99845.91;;;20.79;46.67
15817;BME280;8009;50.070;8.232;2023-08-08T11:57:03;99838.13;;;20.68;47.14
15817;BME280;8009;50.070;8.232;2023-08-08T11:59:32;99831.31;;;20.64;46.26
15817;BME280;8009;50.070;8.232;2023-08-08T12:02:01;99826.56;;;20.58;46.07
15817;BME280;8009;50.070;8.232;2023-08-08T12:04:30;99823.97;;;20.79;46.98
15817;BME280;8009;50.070;8.232;2023-08-08T12:07:02;99818.63;;;20.63;49.46
15817;BME280;8009;50.070;8.232;2023-08-08T12:09:31;99822.53;;;20.68;47.23
15817;BME280;8009;50.070;8.232;2023-08-08T12:12:03;99819.19;;;21.11;51.65
15817;BME280;8009;50.070;8.232;2023-08-08T12:14:36;99822.88;;;21.18;48.29
15817;BME280;8009;50.070;8.232;2023-08-08T12:17:05;99826.84;;;21.01;47.17
15817;BME280;8009;50.070;8.232;2023-08-08T12:19:33;99834.03;;;20.49;49.00
15817;BME280;8009;50.070;8.232;2023-08-08T12:22:07;99832.59;;;20.76;47.05
15817;BME280;8009;50.070;8.232;2023-08-08T12:24:37;99821.31;;;20.71;49.46
15817;BME280;8009;50.070;8.232;2023-08-08T12:27:07;99808.44;;;20.72;47.27
15817;BME280;8009;50.070;8.232;2023-08-08T12:29:36;99823.19;;;20.71;47.83
15817;BME280;8009;50.070;8.232;2023-08-08T12:32:04;99825.16;;;20.62;47.03
15817;BME280;8009;50.070;8.232;2023-08-08T12:34:34;99824.00;;;20.56;48.11
15817;BME280;8009;50.070;8.232;2023-08-08T12:37:02;99823.34;;;20.54;46.99
15817;BME280;8009;50.070;8.232;2023-08-08T12:39:31;99822.66;;;20.90;48.87
15817;BME280;8009;50.070;8.232;2023-08-08T12:41:59;99832.00;;;20.66;48.35
15817;BME280;8009;50.070;8.232;2023-08-08T12:44:30;99822.00;;;20.88;44.83
15817;BME280;8009;50.070;8.232;2023-08-08T12:47:00;99817.81;;;20.77;46.98
15817;BME280;8009;50.070;8.232;2023-08-08T12:49:28;99809.97;;;20.89;50.84
15817;BME280;8009;50.070;8.232;2023-08-08T12:51:56;99817.34;;;20.74;50.65
15817;BME280;8009;50.070;8.232;2023-08-08T12:54:25;99823.69;;;20.74;45.57
15817;BME280;8009;50.070;8.232;2023-08-08T12:56:53;99818.41;;;21.02;45.63
15817;BME280;8009;50.070;8.232;2023-08-08T12:59:22;99811.13;;;20.80;48.15
15817;BME280;8009;50.070;8.232;2023-08-08T13:01:53;99809.88;;;20.82;47.99
15817;BME280;8009;50.070;8.232;2023-08-08T13:04:21;99809.38;;;20.79;45.92
15817;BME280;8009;50.070;8.232;2023-08-08T13:06:50;99814.81;;;21.02;47.06
15817;BME280;8009;50.070;8.232;2023-08-08T13:09:19;99811.16;;;20.72;47.49
15817;BME280;8009;50.070;8.232;2023-08-08T13:11:48;99787.94;;;20.97;46.01
15817;BME280;8009;50.070;8.232;2023-08-08T13:14:17;99797.78;;;20.77;46.91
15817;BME280;8009;50.070;8.232;2023-08-08T13:16:45;99800.13;;;20.94;43.94
15817;BME280;8009;50.070;8.232;2023-08-08T13:19:19;99802.38;;;20.61;48.20
15817;BME280;8009;50.070;8.232;2023-08-08T13:21:50;99792.75;;;20.80;50.15
15817;BME280;8009;50.070;8.232;2023-08-08T13:24:20;99792.00;;;21.01;44.75
15817;BME280;8009;50.070;8.232;2023-08-08T13:26:49;99797.00;;;20.83;45.34
15817;BME280;8009;50.070;8.232;2023-08-08T13:29:18;99799.28;;;20.94;43.76
15817;BME280;8009;50.070;8.232;2023-08-08T13:31:46;99793.53;;;21.04;47.39
15817;BME280;8009;50.070;8.232;2023-08-08T13:34:14;99780.38;;;21.14;46.77
15817;BME280;8009;50.070;8.232;2023-08-08T13:36:45;99783.50;;;20.96;47.50
15817;BME280;8009;50.070;8.232;2023-08-08T13:39:14;99792.66;;;20.88;50.06
15817;BME280;8009;50.070;8.232;2023-08-08T13:41:42;99785.00;;;21.13;47.85
15817;BME280;8009;50.070;8.232;2023-08-08T13:44:11;99787.66;;;21.36;46.06
15817;BME280;8009;50.070;8.232;2023-08-08T13:46:39;99790.97;;;21.17;47.92
15817;BME280;8009;50.070;8.232;2023-08-08T13:49:08;99776.31;;;20.95;46.58
15817;BME280;8009;50.070;8.232;2023-08-08T13:51:36;99771.78;;;20.87;44.27
15817;BME280;8009;50.070;8.232;2023-08-08T13:54:09;99779.81;;;21.04;49.95
15817;BME280;8009;50.070;8.232;2023-08-08T13:56:37;99766.16;;;20.81;49.71
15817;BME280;8009;50.070;8.232;2023-08-08T13:59:05;99764.75;;;21.00;45.63